Fernando Air Base, Philippines

5:59 PM PHT on February 09, 2016 (GMT +0800)
CHED PHERNET Masalukot II Candelaria (UPLB) | | Change Station
CLOSE
Current Station
Personal Weather Station
Location: Candelaria, CALABARZON
Elevation: 295 ft
Nearby Weather Stations

Elev 295 ft 13.94 °N, 121.42 °E | Updated 5 minutes ago

Scattered Clouds
Scattered Clouds
76.9 °F
Feels Like 78 °F
N
3.0
Wind Variable Wind from SE
Gusts 12.0 mph

Today
High -- | Low -- °F
--% Chance of Precip.
Yesterday
High -- | Low -- °F
Precip. -- in
Pressure 29.92 in
Visibility 6.2 miles
Clouds Few 2500 ft
Scattered Clouds 10000 ft
Heat Index 78 °F
Dew Point 70 °F
Humidity 80%
Rainfall 0.00 in
Snow Depth Not available.
6:20 AM 5:57 PM
New Moon, 1% visible
METAR RPLL 090900Z 12007KT 070V170 9999 FEW025 SCT100 29/21 Q1013 NOSIG RMK A2991
Pressure 29.92 in
Visibility 6.2 miles
Clouds Few 2500 ft
Scattered Clouds 10000 ft
Heat Index 78 °F
Dew Point 70 °F
Humidity 80%
Rainfall 0.00 in
Snow Depth Not available.
6:20 AM 5:57 PM
New Moon, 1% visible
METAR RPLL 090900Z 12007KT 070V170 9999 FEW025 SCT100 29/21 Q1013 NOSIG RMK A2991

10-Day Weather Forecast

No radar image for this location.
×

Almanac

Astronomy

Feb. 09, 2016 Rise Set
Actual Time
Civil Twilight
Nautical Twilight
Astronomical Twilight
Moon
Length of Visible Light
Length of Day
Tomorrow will be .
, % of the Moon is Illuminated

Today's Extremes

Country Highs Country Lows

Community

WunderPhotos

Upload Photos

1,891,565 photos uploaded!

WunderBlog® & News

Nearby

Air Quality

  Air Quality AQ Index Pollutant
Not available.

Snow Depth

Station Depth Elevation

Earthquake Activity

City Distance Mag. Time & Date
Minimum magnitude displayed is 2.5.

Coastal Water Temperatures

Place Temperature

Stations

Nearby Weather Stations

Station Location Temp. Windchill Dew Point Humidity Wind Precip. Elev Updated Type